Banner, Kentucky
Current Conditions -  °F | °C
As of 6:35 PM on Monday 22 Dec 2014 (Local Time) from KPBX Reporting Station
Overcast Overcast  
Wind Chill: 53°   Ceiling: 10000
Heat Index: 53°   Visibility: 10mi
Dew Point: 40°   Wind: 9mph
Humidity: 62%   Direction: 130°SE
Pressure: 29.84"   Gusts: NA
Location:  37.61°N, 82.68°W
Report Text: KPBX 222335Z AUTO 13008KT 10SM SCT075 OVC100 12/05 A2984 RMK AO2 LTG DSNT S T01180047
Loading
Personal Weather Stations






























Interactive Weather Map New forecast layout! Learn more

10-Day Weather Forecast

Advertisements
Track Severe Weather on mobile